Billinghay, United Kingdom
Current Conditions -  °F | °C
As of 12:50 PM on Saturday 20 Dec 2014 (Local Time) from EGXC Reporting Station
Broken Clouds Broken Clouds  
Wind Chill: 41°   Ceiling: 3200
Heat Index: 48°   Visibility: 6mi
Dew Point: 41°   Wind: 20mph
Humidity: 76%   Direction: 280°W
Pressure: 30.18"   Gusts: NA
Location:  53.08°N, 0.28°W
Report Text: EGXC 201250Z 28017KT 9999 BKN032 09/05 Q1022 BLU
Loading
Personal Weather Stations






























Interactive Weather Map New forecast layout! Learn more

10-Day Weather Forecast

Advertisements
Track Severe Weather on mobile